sensor_id;sensor_type;location;lat;lon;timestamp;P1;durP1;ratioP1;P2;durP2;ratioP2
30127;SDS011;16942;53.196;6.592;2023-08-08T00:22:08;5.13;;;2.50;;
30127;SDS011;16942;53.196;6.592;2023-08-08T00:24:34;6.93;;;3.20;;
30127;SDS011;16942;53.196;6.592;2023-08-08T00:27:00;14.37;;;3.37;;
30127;SDS011;16942;53.196;6.592;2023-08-08T00:29:26;8.87;;;2.77;;
30127;SDS011;16942;53.196;6.592;2023-08-08T00:31:52;6.33;;;2.90;;
30127;SDS011;16942;53.196;6.592;2023-08-08T00:34:18;5.87;;;3.20;;
30127;SDS011;16942;53.196;6.592;2023-08-08T00:36:44;5.93;;;3.20;;
30127;SDS011;16942;53.196;6.592;2023-08-08T00:39:10;8.40;;;3.33;;
30127;SDS011;16942;53.196;6.592;2023-08-08T00:41:36;8.43;;;3.23;;
30127;SDS011;16942;53.196;6.592;2023-08-08T00:44:02;5.73;;;3.47;;
30127;SDS011;16942;53.196;6.592;2023-08-08T00:46:29;3.70;;;2.70;;
30127;SDS011;16942;53.196;6.592;2023-08-08T00:48:55;4.47;;;3.00;;
30127;SDS011;16942;53.196;6.592;2023-08-08T00:51:21;7.60;;;3.17;;
30127;SDS011;16942;53.196;6.592;2023-08-08T00:53:47;5.40;;;3.03;;
30127;SDS011;16942;53.196;6.592;2023-08-08T00:56:13;6.67;;;3.43;;
30127;SDS011;16942;53.196;6.592;2023-08-08T00:58:40;7.23;;;4.03;;
30127;SDS011;16942;53.196;6.592;2023-08-08T01:01:06;7.03;;;3.03;;
30127;SDS011;16942;53.196;6.592;2023-08-08T01:03:32;5.17;;;2.80;;
30127;SDS011;16942;53.196;6.592;2023-08-08T01:06:23;9.80;;;3.20;;
30127;SDS011;16942;53.196;6.592;2023-08-08T01:08:51;4.60;;;2.93;;
30127;SDS011;16942;53.196;6.592;2023-08-08T01:11:19;5.67;;;3.10;;
30127;SDS011;16942;53.196;6.592;2023-08-08T01:13:45;7.37;;;3.40;;
30127;SDS011;16942;53.196;6.592;2023-08-08T01:16:11;3.77;;;2.67;;
30127;SDS011;16942;53.196;6.592;2023-08-08T01:18:38;4.97;;;3.13;;
30127;SDS011;16942;53.196;6.592;2023-08-08T01:21:05;4.63;;;2.90;;
30127;SDS011;16942;53.196;6.592;2023-08-08T01:23:33;7.87;;;3.20;;
30127;SDS011;16942;53.196;6.592;2023-08-08T01:26:00;6.37;;;3.47;;
30127;SDS011;16942;53.196;6.592;2023-08-08T01:28:27;5.97;;;3.13;;
30127;SDS011;16942;53.196;6.592;2023-08-08T01:30:53;5.07;;;3.53;;
30127;SDS011;16942;53.196;6.592;2023-08-08T01:33:19;7.10;;;3.17;;
30127;SDS011;16942;53.196;6.592;2023-08-08T01:35:51;8.20;;;3.37;;
30127;SDS011;16942;53.196;6.592;2023-08-08T01:38:20;7.13;;;3.10;;
30127;SDS011;16942;53.196;6.592;2023-08-08T01:40:49;7.43;;;3.23;;
30127;SDS011;16942;53.196;6.592;2023-08-08T01:43:15;6.53;;;3.27;;
30127;SDS011;16942;53.196;6.592;2023-08-08T01:45:46;8.20;;;3.40;;
30127;SDS011;16942;53.196;6.592;2023-08-08T01:48:12;5.27;;;3.10;;
30127;SDS011;16942;53.196;6.592;2023-08-08T01:50:38;7.17;;;2.93;;
30127;SDS011;16942;53.196;6.592;2023-08-08T01:53:04;8.67;;;3.23;;
30127;SDS011;16942;53.196;6.592;2023-08-08T01:55:30;5.50;;;3.17;;
30127;SDS011;16942;53.196;6.592;2023-08-08T01:57:57;5.10;;;2.90;;
30127;SDS011;16942;53.196;6.592;2023-08-08T02:00:23;10.23;;;2.83;;
30127;SDS011;16942;53.196;6.592;2023-08-08T02:02:49;7.83;;;2.90;;
30127;SDS011;16942;53.196;6.592;2023-08-08T02:05:15;5.90;;;3.07;;
30127;SDS011;16942;53.196;6.592;2023-08-08T02:07:41;8.43;;;2.83;;
30127;SDS011;16942;53.196;6.592;2023-08-08T02:10:07;8.07;;;4.13;;
30127;SDS011;16942;53.196;6.592;2023-08-08T02:12:33;10.03;;;3.43;;
30127;SDS011;16942;53.196;6.592;2023-08-08T02:14:59;7.10;;;3.43;;
30127;SDS011;16942;53.196;6.592;2023-08-08T02:17:25;9.17;;;2.80;;
30127;SDS011;16942;53.196;6.592;2023-08-08T02:19:52;6.43;;;3.30;;
30127;SDS011;16942;53.196;6.592;2023-08-08T02:22:18;4.63;;;3.17;;
30127;SDS011;16942;53.196;6.592;2023-08-08T02:24:44;8.20;;;4.27;;
30127;SDS011;16942;53.196;6.592;2023-08-08T02:27:11;7.73;;;3.30;;
30127;SDS011;16942;53.196;6.592;2023-08-08T02:29:37;5.20;;;3.00;;
30127;SDS011;16942;53.196;6.592;2023-08-08T02:32:03;4.20;;;3.00;;
30127;SDS011;16942;53.196;6.592;2023-08-08T02:34:29;6.77;;;2.90;;
30127;SDS011;16942;53.196;6.592;2023-08-08T02:36:55;7.77;;;3.00;;
30127;SDS011;16942;53.196;6.592;2023-08-08T02:39:21;6.43;;;3.07;;
30127;SDS011;16942;53.196;6.592;2023-08-08T02:41:47;9.27;;;3.20;;
30127;SDS011;16942;53.196;6.592;2023-08-08T02:44:13;4.73;;;2.40;;
30127;SDS011;16942;53.196;6.592;2023-08-08T02:46:39;5.57;;;2.80;;
30127;SDS011;16942;53.196;6.592;2023-08-08T02:49:05;6.73;;;2.70;;
30127;SDS011;16942;53.196;6.592;2023-08-08T02:51:31;5.80;;;2.73;;
30127;SDS011;16942;53.196;6.592;2023-08-08T02:53:57;5.70;;;2.70;;
30127;SDS011;16942;53.196;6.592;2023-08-08T02:56:23;7.20;;;3.13;;
30127;SDS011;16942;53.196;6.592;2023-08-08T02:58:49;7.47;;;3.17;;
30127;SDS011;16942;53.196;6.592;2023-08-08T03:01:15;6.93;;;3.30;;
30127;SDS011;16942;53.196;6.592;2023-08-08T03:03:42;6.97;;;3.50;;
30127;SDS011;16942;53.196;6.592;2023-08-08T03:06:08;9.00;;;3.70;;
30127;SDS011;16942;53.196;6.592;2023-08-08T03:08:34;9.50;;;2.93;;
30127;SDS011;16942;53.196;6.592;2023-08-08T03:11:00;9.13;;;3.87;;
30127;SDS011;16942;53.196;6.592;2023-08-08T03:13:26;6.10;;;2.87;;
30127;SDS011;16942;53.196;6.592;2023-08-08T03:15:52;14.00;;;3.37;;
30127;SDS011;16942;53.196;6.592;2023-08-08T03:18:19;7.03;;;2.67;;
30127;SDS011;16942;53.196;6.592;2023-08-08T03:20:45;8.63;;;2.60;;
30127;SDS011;16942;53.196;6.592;2023-08-08T03:23:11;7.93;;;2.23;;
30127;SDS011;16942;53.196;6.592;2023-08-08T03:25:37;8.33;;;2.40;;
30127;SDS011;16942;53.196;6.592;2023-08-08T03:28:03;4.93;;;2.33;;
30127;SDS011;16942;53.196;6.592;2023-08-08T03:30:29;4.83;;;2.13;;
30127;SDS011;16942;53.196;6.592;2023-08-08T03:32:55;4.23;;;2.03;;
30127;SDS011;16942;53.196;6.592;2023-08-08T03:35:21;5.30;;;1.83;;
30127;SDS011;16942;53.196;6.592;2023-08-08T03:37:47;4.47;;;2.07;;
30127;SDS011;16942;53.196;6.592;2023-08-08T03:40:13;4.90;;;1.73;;
30127;SDS011;16942;53.196;6.592;2023-08-08T03:42:39;5.47;;;1.67;;
30127;SDS011;16942;53.196;6.592;2023-08-08T03:45:06;3.87;;;1.97;;
30127;SDS011;16942;53.196;6.592;2023-08-08T03:47:32;3.27;;;1.97;;
30127;SDS011;16942;53.196;6.592;2023-08-08T03:49:58;2.87;;;1.60;;
30127;SDS011;16942;53.196;6.592;2023-08-08T03:52:24;3.50;;;1.80;;
30127;SDS011;16942;53.196;6.592;2023-08-08T03:54:51;3.80;;;1.67;;
30127;SDS011;16942;53.196;6.592;2023-08-08T03:57:17;5.07;;;1.70;;
30127;SDS011;16942;53.196;6.592;2023-08-08T03:59:43;4.77;;;1.90;;
30127;SDS011;16942;53.196;6.592;2023-08-08T04:02:09;4.60;;;1.73;;
30127;SDS011;16942;53.196;6.592;2023-08-08T04:04:35;4.47;;;1.50;;
30127;SDS011;16942;53.196;6.592;2023-08-08T04:07:01;3.10;;;1.70;;
30127;SDS011;16942;53.196;6.592;2023-08-08T04:09:27;8.10;;;1.53;;
30127;SDS011;16942;53.196;6.592;2023-08-08T04:11:53;6.00;;;1.70;;
30127;SDS011;16942;53.196;6.592;2023-08-08T04:14:19;4.53;;;1.93;;
30127;SDS011;16942;53.196;6.592;2023-08-08T04:16:47;3.87;;;1.57;;
30127;SDS011;16942;53.196;6.592;2023-08-08T04:19:13;6.33;;;1.73;;
30127;SDS011;16942;53.196;6.592;2023-08-08T04:21:39;4.17;;;1.50;;
30127;SDS011;16942;53.196;6.592;2023-08-08T04:24:05;4.03;;;1.63;;
30127;SDS011;16942;53.196;6.592;2023-08-08T04:26:32;3.83;;;1.60;;
30127;SDS011;16942;53.196;6.592;2023-08-08T04:28:58;4.30;;;2.10;;
30127;SDS011;16942;53.196;6.592;2023-08-08T04:31:24;5.77;;;1.90;;
30127;SDS011;16942;53.196;6.592;2023-08-08T04:33:51;5.33;;;1.70;;
30127;SDS011;16942;53.196;6.592;2023-08-08T04:36:20;8.03;;;1.90;;
30127;SDS011;16942;53.196;6.592;2023-08-08T04:38:46;6.63;;;2.33;;
30127;SDS011;16942;53.196;6.592;2023-08-08T04:41:12;6.73;;;1.70;;
30127;SDS011;16942;53.196;6.592;2023-08-08T04:43:41;5.57;;;1.80;;
30127;SDS011;16942;53.196;6.592;2023-08-08T04:46:07;4.87;;;1.60;;
30127;SDS011;16942;53.196;6.592;2023-08-08T04:48:34;4.17;;;1.63;;
30127;SDS011;16942;53.196;6.592;2023-08-08T04:51:02;8.93;;;2.00;;
30127;SDS011;16942;53.196;6.592;2023-08-08T04:53:28;4.33;;;1.80;;
30127;SDS011;16942;53.196;6.592;2023-08-08T04:55:54;6.70;;;2.10;;
30127;SDS011;16942;53.196;6.592;2023-08-08T04:58:20;4.87;;;1.97;;
30127;SDS011;16942;53.196;6.592;2023-08-08T05:00:46;4.40;;;1.60;;
30127;SDS011;16942;53.196;6.592;2023-08-08T05:03:12;4.00;;;1.47;;
30127;SDS011;16942;53.196;6.592;2023-08-08T05:05:38;3.03;;;1.30;;
30127;SDS011;16942;53.196;6.592;2023-08-08T05:08:04;6.63;;;1.80;;
30127;SDS011;16942;53.196;6.592;2023-08-08T05:10:30;4.23;;;1.70;;
30127;SDS011;16942;53.196;6.592;2023-08-08T05:12:57;5.90;;;2.23;;
30127;SDS011;16942;53.196;6.592;2023-08-08T05:15:23;4.93;;;1.70;;
30127;SDS011;16942;53.196;6.592;2023-08-08T05:17:49;3.50;;;1.57;;
30127;SDS011;16942;53.196;6.592;2023-08-08T05:20:16;5.27;;;1.70;;
30127;SDS011;16942;53.196;6.592;2023-08-08T05:22:42;4.77;;;1.40;;
30127;SDS011;16942;53.196;6.592;2023-08-08T05:25:08;4.13;;;1.53;;
30127;SDS011;16942;53.196;6.592;2023-08-08T05:27:34;6.73;;;1.50;;
30127;SDS011;16942;53.196;6.592;2023-08-08T05:30:01;3.97;;;1.50;;
30127;SDS011;16942;53.196;6.592;2023-08-08T05:32:29;5.10;;;2.10;;
30127;SDS011;16942;53.196;6.592;2023-08-08T05:34:55;6.27;;;1.60;;
30127;SDS011;16942;53.196;6.592;2023-08-08T05:37:22;5.43;;;1.37;;
30127;SDS011;16942;53.196;6.592;2023-08-08T05:39:48;6.13;;;1.50;;
30127;SDS011;16942;53.196;6.592;2023-08-08T05:42:14;3.63;;;1.60;;
30127;SDS011;16942;53.196;6.592;2023-08-08T05:44:40;10.83;;;1.90;;
30127;SDS011;16942;53.196;6.592;2023-08-08T05:47:07;11.90;;;3.63;;
30127;SDS011;16942;53.196;6.592;2023-08-08T05:49:33;3.40;;;1.30;;
30127;SDS011;16942;53.196;6.592;2023-08-08T05:51:59;4.27;;;1.30;;
30127;SDS011;16942;53.196;6.592;2023-08-08T05:54:25;3.67;;;1.27;;
30127;SDS011;16942;53.196;6.592;2023-08-08T05:56:53;5.33;;;1.30;;
30127;SDS011;16942;53.196;6.592;2023-08-08T05:59:19;7.90;;;3.10;;
30127;SDS011;16942;53.196;6.592;2023-08-08T06:01:45;5.03;;;1.20;;
30127;SDS011;16942;53.196;6.592;2023-08-08T06:04:11;4.63;;;1.40;;
30127;SDS011;16942;53.196;6.592;2023-08-08T06:06:38;6.67;;;1.40;;
30127;SDS011;16942;53.196;6.592;2023-08-08T06:09:04;3.43;;;1.47;;
30127;SDS011;16942;53.196;6.592;2023-08-08T06:11:30;6.50;;;1.87;;
30127;SDS011;16942;53.196;6.592;2023-08-08T06:13:56;8.17;;;2.10;;
30127;SDS011;16942;53.196;6.592;2023-08-08T06:16:22;5.00;;;1.60;;
30127;SDS011;16942;53.196;6.592;2023-08-08T06:18:48;4.10;;;1.13;;
30127;SDS011;16942;53.196;6.592;2023-08-08T06:21:14;6.17;;;1.40;;
30127;SDS011;16942;53.196;6.592;2023-08-08T06:23:40;5.50;;;1.60;;
30127;SDS011;16942;53.196;6.592;2023-08-08T06:26:06;10.90;;;1.63;;
30127;SDS011;16942;53.196;6.592;2023-08-08T06:28:34;1.90;;;1.10;;
30127;SDS011;16942;53.196;6.592;2023-08-08T06:31:01;7.80;;;1.50;;
30127;SDS011;16942;53.196;6.592;2023-08-08T06:33:27;5.87;;;1.23;;
30127;SDS011;16942;53.196;6.592;2023-08-08T06:35:54;4.53;;;1.33;;
30127;SDS011;16942;53.196;6.592;2023-08-08T06:38:20;4.57;;;1.30;;
30127;SDS011;16942;53.196;6.592;2023-08-08T06:40:46;5.97;;;1.33;;
30127;SDS011;16942;53.196;6.592;2023-08-08T06:43:12;4.73;;;1.30;;
30127;SDS011;16942;53.196;6.592;2023-08-08T06:45:38;12.40;;;2.03;;
30127;SDS011;16942;53.196;6.592;2023-08-08T06:48:05;6.77;;;1.27;;
30127;SDS011;16942;53.196;6.592;2023-08-08T06:50:31;6.50;;;1.80;;
30127;SDS011;16942;53.196;6.592;2023-08-08T06:52:57;5.53;;;1.40;;
30127;SDS011;16942;53.196;6.592;2023-08-08T06:55:23;16.70;;;1.37;;
30127;SDS011;16942;53.196;6.592;2023-08-08T06:57:49;4.07;;;1.00;;
30127;SDS011;16942;53.196;6.592;2023-08-08T07:00:15;10.20;;;1.80;;
30127;SDS011;16942;53.196;6.592;2023-08-08T07:02:41;11.47;;;4.50;;
30127;SDS011;16942;53.196;6.592;2023-08-08T07:05:07;4.57;;;1.13;;
30127;SDS011;16942;53.196;6.592;2023-08-08T07:07:35;3.77;;;1.30;;
30127;SDS011;16942;53.196;6.592;2023-08-08T07:10:01;2.63;;;1.23;;
30127;SDS011;16942;53.196;6.592;2023-08-08T07:12:28;11.73;;;1.30;;
30127;SDS011;16942;53.196;6.592;2023-08-08T07:14:54;4.03;;;1.20;;
30127;SDS011;16942;53.196;6.592;2023-08-08T07:17:21;7.27;;;1.40;;
30127;SDS011;16942;53.196;6.592;2023-08-08T07:19:47;4.23;;;1.27;;
30127;SDS011;16942;53.196;6.592;2023-08-08T07:22:13;8.67;;;1.00;;
30127;SDS011;16942;53.196;6.592;2023-08-08T07:24:39;4.83;;;1.33;;
30127;SDS011;16942;53.196;6.592;2023-08-08T07:27:05;10.23;;;1.57;;
30127;SDS011;16942;53.196;6.592;2023-08-08T07:29:31;7.23;;;1.30;;
30127;SDS011;16942;53.196;6.592;2023-08-08T07:31:57;6.50;;;1.10;;
30127;SDS011;16942;53.196;6.592;2023-08-08T07:34:23;7.30;;;1.00;;
30127;SDS011;16942;53.196;6.592;2023-08-08T07:36:50;6.47;;;1.10;;
30127;SDS011;16942;53.196;6.592;2023-08-08T07:39:16;4.53;;;0.93;;
30127;SDS011;16942;53.196;6.592;2023-08-08T07:41:42;7.63;;;1.00;;
30127;SDS011;16942;53.196;6.592;2023-08-08T07:44:08;6.80;;;1.00;;
30127;SDS011;16942;53.196;6.592;2023-08-08T07:46:34;4.90;;;1.13;;
30127;SDS011;16942;53.196;6.592;2023-08-08T07:49:00;6.50;;;2.37;;
30127;SDS011;16942;53.196;6.592;2023-08-08T07:51:28;7.00;;;1.10;;
30127;SDS011;16942;53.196;6.592;2023-08-08T07:53:55;4.97;;;1.10;;
30127;SDS011;16942;53.196;6.592;2023-08-08T07:56:21;10.13;;;1.57;;
30127;SDS011;16942;53.196;6.592;2023-08-08T07:58:47;2.83;;;1.00;;
30127;SDS011;16942;53.196;6.592;2023-08-08T08:01:13;5.23;;;1.10;;
30127;SDS011;16942;53.196;6.592;2023-08-08T08:03:39;4.33;;;0.97;;
30127;SDS011;16942;53.196;6.592;2023-08-08T08:06:05;3.50;;;1.00;;
30127;SDS011;16942;53.196;6.592;2023-08-08T08:08:31;4.37;;;0.87;;
30127;SDS011;16942;53.196;6.592;2023-08-08T08:10:57;5.53;;;1.30;;
30127;SDS011;16942;53.196;6.592;2023-08-08T08:13:24;3.80;;;1.00;;
30127;SDS011;16942;53.196;6.592;2023-08-08T08:15:50;12.27;;;2.70;;
30127;SDS011;16942;53.196;6.592;2023-08-08T08:18:16;6.63;;;1.10;;
30127;SDS011;16942;53.196;6.592;2023-08-08T08:20:42;6.20;;;1.00;;
30127;SDS011;16942;53.196;6.592;2023-08-08T08:23:09;6.67;;;1.10;;
30127;SDS011;16942;53.196;6.592;2023-08-08T08:25:35;6.47;;;0.80;;
30127;SDS011;16942;53.196;6.592;2023-08-08T08:28:01;6.37;;;1.20;;
30127;SDS011;16942;53.196;6.592;2023-08-08T08:30:27;3.30;;;1.00;;
30127;SDS011;16942;53.196;6.592;2023-08-08T08:32:53;4.60;;;1.30;;
30127;SDS011;16942;53.196;6.592;2023-08-08T08:35:19;5.10;;;1.00;;
30127;SDS011;16942;53.196;6.592;2023-08-08T08:37:45;6.97;;;1.00;;
30127;SDS011;16942;53.196;6.592;2023-08-08T08:40:11;3.27;;;1.03;;
30127;SDS011;16942;53.196;6.592;2023-08-08T08:42:38;4.20;;;0.90;;
30127;SDS011;16942;53.196;6.592;2023-08-08T08:45:06;5.03;;;1.20;;
30127;SDS011;16942;53.196;6.592;2023-08-08T08:47:32;7.53;;;1.43;;
30127;SDS011;16942;53.196;6.592;2023-08-08T08:49:59;4.00;;;0.90;;
30127;SDS011;16942;53.196;6.592;2023-08-08T08:52:27;6.23;;;1.40;;
30127;SDS011;16942;53.196;6.592;2023-08-08T08:54:53;5.30;;;1.50;;
30127;SDS011;16942;53.196;6.592;2023-08-08T08:57:23;5.57;;;1.23;;
30127;SDS011;16942;53.196;6.592;2023-08-08T08:59:49;3.57;;;1.00;;
30127;SDS011;16942;53.196;6.592;2023-08-08T09:02:15;8.80;;;1.13;;
30127;SDS011;16942;53.196;6.592;2023-08-08T09:04:42;2.97;;;0.80;;
30127;SDS011;16942;53.196;6.592;2023-08-08T09:07:08;3.63;;;1.20;;
30127;SDS011;16942;53.196;6.592;2023-08-08T09:09:35;7.43;;;1.27;;
30127;SDS011;16942;53.196;6.592;2023-08-08T09:12:03;6.47;;;1.17;;
30127;SDS011;16942;53.196;6.592;2023-08-08T09:14:30;3.67;;;1.60;;
30127;SDS011;16942;53.196;6.592;2023-08-08T09:16:56;6.00;;;1.00;;
30127;SDS011;16942;53.196;6.592;2023-08-08T09:19:22;3.43;;;1.07;;
30127;SDS011;16942;53.196;6.592;2023-08-08T09:21:48;6.00;;;0.83;;
30127;SDS011;16942;53.196;6.592;2023-08-08T09:24:15;1.67;;;0.70;;
30127;SDS011;16942;53.196;6.592;2023-08-08T09:26:41;4.10;;;1.00;;
30127;SDS011;16942;53.196;6.592;2023-08-08T09:29:08;5.87;;;0.90;;
30127;SDS011;16942;53.196;6.592;2023-08-08T09:31:35;5.87;;;1.00;;
30127;SDS011;16942;53.196;6.592;2023-08-08T09:34:02;6.10;;;1.07;;
30127;SDS011;16942;53.196;6.592;2023-08-08T09:36:28;4.17;;;0.87;;
30127;SDS011;16942;53.196;6.592;2023-08-08T09:38:54;4.37;;;1.07;;
30127;SDS011;16942;53.196;6.592;2023-08-08T09:41:24;4.23;;;1.10;;
30127;SDS011;16942;53.196;6.592;2023-08-08T09:43:51;3.63;;;0.77;;
30127;SDS011;16942;53.196;6.592;2023-08-08T09:46:18;4.43;;;1.33;;
30127;SDS011;16942;53.196;6.592;2023-08-08T09:48:44;5.20;;;1.30;;
30127;SDS011;16942;53.196;6.592;2023-08-08T09:51:11;2.87;;;1.30;;
30127;SDS011;16942;53.196;6.592;2023-08-08T09:53:38;4.43;;;0.87;;
30127;SDS011;16942;53.196;6.592;2023-08-08T09:56:05;6.37;;;2.30;;
30127;SDS011;16942;53.196;6.592;2023-08-08T09:58:31;6.63;;;1.00;;
30127;SDS011;16942;53.196;6.592;2023-08-08T10:00:57;5.90;;;1.00;;
30127;SDS011;16942;53.196;6.592;2023-08-08T10:03:23;4.73;;;1.50;;
30127;SDS011;16942;53.196;6.592;2023-08-08T10:05:49;6.23;;;1.10;;
30127;SDS011;16942;53.196;6.592;2023-08-08T10:08:16;4.90;;;1.73;;
30127;SDS011;16942;53.196;6.592;2023-08-08T10:10:46;4.87;;;1.10;;
30127;SDS011;16942;53.196;6.592;2023-08-08T10:13:20;3.47;;;1.07;;
30127;SDS011;16942;53.196;6.592;2023-08-08T10:15:46;2.90;;;1.03;;
30127;SDS011;16942;53.196;6.592;2023-08-08T10:18:12;4.90;;;1.00;;
30127;SDS011;16942;53.196;6.592;2023-08-08T10:20:41;4.50;;;0.90;;
30127;SDS011;16942;53.196;6.592;2023-08-08T10:23:08;7.03;;;1.10;;
30127;SDS011;16942;53.196;6.592;2023-08-08T10:25:34;7.03;;;1.33;;
30127;SDS011;16942;53.196;6.592;2023-08-08T10:28:10;8.03;;;1.47;;
30127;SDS011;16942;53.196;6.592;2023-08-08T10:30:42;4.93;;;1.30;;
30127;SDS011;16942;53.196;6.592;2023-08-08T10:33:15;6.60;;;1.97;;
30127;SDS011;16942;53.196;6.592;2023-08-08T10:35:49;3.87;;;1.30;;
30127;SDS011;16942;53.196;6.592;2023-08-08T10:38:16;5.13;;;1.33;;
30127;SDS011;16942;53.196;6.592;2023-08-08T10:40:42;8.77;;;1.33;;
30127;SDS011;16942;53.196;6.592;2023-08-08T10:43:11;5.50;;;1.33;;
30127;SDS011;16942;53.196;6.592;2023-08-08T10:45:41;7.47;;;1.37;;
30127;SDS011;16942;53.196;6.592;2023-08-08T10:48:08;5.00;;;1.10;;
30127;SDS011;16942;53.196;6.592;2023-08-08T10:50:37;4.43;;;1.20;;
30127;SDS011;16942;53.196;6.592;2023-08-08T10:53:03;7.83;;;1.13;;
30127;SDS011;16942;53.196;6.592;2023-08-08T10:55:36;9.13;;;1.90;;
30127;SDS011;16942;53.196;6.592;2023-08-08T11:00:29;4.00;;;1.20;;
30127;SDS011;16942;53.196;6.592;2023-08-08T11:02:56;3.90;;;1.20;;
30127;SDS011;16942;53.196;6.592;2023-08-08T11:05:23;2.87;;;1.00;;
30127;SDS011;16942;53.196;6.592;2023-08-08T11:07:49;7.33;;;1.33;;
30127;SDS011;16942;53.196;6.592;2023-08-08T11:10:16;6.70;;;1.40;;
30127;SDS011;16942;53.196;6.592;2023-08-08T11:12:42;5.90;;;1.23;;
30127;SDS011;16942;53.196;6.592;2023-08-08T11:15:17;5.83;;;1.13;;
30127;SDS011;16942;53.196;6.592;2023-08-08T11:17:43;5.07;;;0.97;;
30127;SDS011;16942;53.196;6.592;2023-08-08T11:20:10;7.07;;;1.50;;
30127;SDS011;16942;53.196;6.592;2023-08-08T11:22:36;2.37;;;1.10;;
30127;SDS011;16942;53.196;6.592;2023-08-08T11:25:02;2.80;;;1.20;;
30127;SDS011;16942;53.196;6.592;2023-08-08T11:27:29;6.23;;;1.00;;
30127;SDS011;16942;53.196;6.592;2023-08-08T11:29:56;5.37;;;1.10;;
30127;SDS011;16942;53.196;6.592;2023-08-08T11:32:23;5.00;;;0.90;;
30127;SDS011;16942;53.196;6.592;2023-08-08T11:34:49;6.53;;;1.30;;
30127;SDS011;16942;53.196;6.592;2023-08-08T11:37:16;3.00;;;0.80;;
30127;SDS011;16942;53.196;6.592;2023-08-08T11:39:42;5.53;;;0.90;;
30127;SDS011;16942;53.196;6.592;2023-08-08T11:42:08;2.53;;;0.73;;
30127;SDS011;16942;53.196;6.592;2023-08-08T11:44:35;4.07;;;1.20;;
30127;SDS011;16942;53.196;6.592;2023-08-08T11:47:01;4.80;;;0.90;;
30127;SDS011;16942;53.196;6.592;2023-08-08T11:49:27;3.40;;;1.00;;
30127;SDS011;16942;53.196;6.592;2023-08-08T11:51:53;4.00;;;0.90;;
30127;SDS011;16942;53.196;6.592;2023-08-08T11:54:26;7.57;;;1.13;;
30127;SDS011;16942;53.196;6.592;2023-08-08T11:56:53;4.00;;;1.03;;
30127;SDS011;16942;53.196;6.592;2023-08-08T11:59:19;7.73;;;1.00;;
30127;SDS011;16942;53.196;6.592;2023-08-08T12:01:45;5.70;;;1.30;;
30127;SDS011;16942;53.196;6.592;2023-08-08T12:04:11;4.03;;;0.97;;
30127;SDS011;16942;53.196;6.592;2023-08-08T12:06:37;11.60;;;1.53;;
30127;SDS011;16942;53.196;6.592;2023-08-08T12:09:13;6.47;;;1.10;;
30127;SDS011;16942;53.196;6.592;2023-08-08T12:11:39;5.37;;;0.97;;
30127;SDS011;16942;53.196;6.592;2023-08-08T12:14:07;4.87;;;0.90;;
30127;SDS011;16942;53.196;6.592;2023-08-08T12:16:38;5.25;;;1.00;;
30127;SDS011;16942;53.196;6.592;2023-08-08T12:19:06;3.35;;;0.90;;
30127;SDS011;16942;53.196;6.592;2023-08-08T12:21:34;4.63;;;1.10;;
30127;SDS011;16942;53.196;6.592;2023-08-08T12:24:00;5.82;;;1.52;;
30127;SDS011;16942;53.196;6.592;2023-08-08T12:26:27;3.03;;;0.80;;
30127;SDS011;16942;53.196;6.592;2023-08-08T12:28:53;4.50;;;1.10;;
30127;SDS011;16942;53.196;6.592;2023-08-08T12:31:20;5.17;;;1.23;;
30127;SDS011;16942;53.196;6.592;2023-08-08T12:33:46;6.73;;;1.20;;
30127;SDS011;16942;53.196;6.592;2023-08-08T12:36:13;3.03;;;1.07;;
30127;SDS011;16942;53.196;6.592;2023-08-08T12:38:39;5.37;;;1.13;;
30127;SDS011;16942;53.196;6.592;2023-08-08T12:41:06;6.13;;;1.10;;
30127;SDS011;16942;53.196;6.592;2023-08-08T12:43:32;5.70;;;1.20;;
30127;SDS011;16942;53.196;6.592;2023-08-08T12:45:59;6.90;;;1.50;;
30127;SDS011;16942;53.196;6.592;2023-08-08T12:48:25;8.67;;;1.63;;
30127;SDS011;16942;53.196;6.592;2023-08-08T12:50:51;11.93;;;1.43;;
30127;SDS011;16942;53.196;6.592;2023-08-08T12:53:17;4.10;;;1.13;;
30127;SDS011;16942;53.196;6.592;2023-08-08T12:55:43;3.63;;;1.13;;
30127;SDS011;16942;53.196;6.592;2023-08-08T12:58:09;4.90;;;1.00;;
30127;SDS011;16942;53.196;6.592;2023-08-08T13:00:35;7.23;;;1.37;;
30127;SDS011;16942;53.196;6.592;2023-08-08T13:03:02;4.87;;;1.10;;
30127;SDS011;16942;53.196;6.592;2023-08-08T13:05:28;2.80;;;1.00;;
30127;SDS011;16942;53.196;6.592;2023-08-08T13:07:54;4.83;;;1.10;;
30127;SDS011;16942;53.196;6.592;2023-08-08T13:10:20;3.23;;;1.47;;
30127;SDS011;16942;53.196;6.592;2023-08-08T13:12:47;2.87;;;1.00;;
30127;SDS011;16942;53.196;6.592;2023-08-08T13:15:13;5.03;;;1.00;;
30127;SDS011;16942;53.196;6.592;2023-08-08T13:17:39;5.23;;;1.03;;
30127;SDS011;16942;53.196;6.592;2023-08-08T13:20:05;6.93;;;1.07;;
30127;SDS011;16942;53.196;6.592;2023-08-08T13:22:32;6.73;;;0.90;;
30127;SDS011;16942;53.196;6.592;2023-08-08T13:24:58;3.97;;;1.20;;
30127;SDS011;16942;53.196;6.592;2023-08-08T13:27:24;2.45;;;0.90;;
30127;SDS011;16942;53.196;6.592;2023-08-08T13:29:50;4.40;;;1.13;;
30127;SDS011;16942;53.196;6.592;2023-08-08T13:32:16;4.55;;;1.20;;
30127;SDS011;16942;53.196;6.592;2023-08-08T13:34:43;6.15;;;1.13;;
30127;SDS011;16942;53.196;6.592;2023-08-08T13:37:09;2.70;;;1.20;;
30127;SDS011;16942;53.196;6.592;2023-08-08T13:39:35;5.68;;;1.05;;
30127;SDS011;16942;53.196;6.592;2023-08-08T13:42:01;5.20;;;0.90;;
30127;SDS011;16942;53.196;6.592;2023-08-08T13:44:28;1.90;;;1.00;;
30127;SDS011;16942;53.196;6.592;2023-08-08T13:46:54;4.50;;;1.13;;
30127;SDS011;16942;53.196;6.592;2023-08-08T13:49:20;1.92;;;0.70;;
30127;SDS011;16942;53.196;6.592;2023-08-08T13:51:51;5.82;;;1.20;;
30127;SDS011;16942;53.196;6.592;2023-08-08T13:54:17;1.88;;;0.65;;
30127;SDS011;16942;53.196;6.592;2023-08-08T13:56:43;4.25;;;0.95;;
30127;SDS011;16942;53.196;6.592;2023-08-08T13:59:09;8.00;;;1.15;;
30127;SDS011;16942;53.196;6.592;2023-08-08T14:01:35;6.00;;;1.42;;
30127;SDS011;16942;53.196;6.592;2023-08-08T14:04:01;4.10;;;0.85;;
30127;SDS011;16942;53.196;6.592;2023-08-08T14:06:27;5.00;;;0.95;;
30127;SDS011;16942;53.196;6.592;2023-08-08T14:08:54;4.10;;;1.02;;
30127;SDS011;16942;53.196;6.592;2023-08-08T14:11:20;4.60;;;1.15;;
30127;SDS011;16942;53.196;6.592;2023-08-08T14:13:46;6.07;;;1.58;;
30127;SDS011;16942;53.196;6.592;2023-08-08T14:16:12;2.67;;;1.10;;
30127;SDS011;16942;53.196;6.592;2023-08-08T14:18:38;6.85;;;1.02;;
30127;SDS011;16942;53.196;6.592;2023-08-08T14:21:04;7.32;;;1.10;;
30127;SDS011;16942;53.196;6.592;2023-08-08T14:23:30;4.88;;;1.10;;
30127;SDS011;16942;53.196;6.592;2023-08-08T14:25:56;2.20;;;0.98;;
30127;SDS011;16942;53.196;6.592;2023-08-08T14:28:22;3.97;;;1.25;;
30127;SDS011;16942;53.196;6.592;2023-08-08T14:30:48;4.85;;;0.90;;
30127;SDS011;16942;53.196;6.592;2023-08-08T14:33:14;5.13;;;0.82;;
30127;SDS011;16942;53.196;6.592;2023-08-08T14:35:41;2.50;;;0.80;;
30127;SDS011;16942;53.196;6.592;2023-08-08T14:38:07;2.65;;;1.10;;
30127;SDS011;16942;53.196;6.592;2023-08-08T14:40:33;2.45;;;1.05;;
30127;SDS011;16942;53.196;6.592;2023-08-08T14:43:02;4.70;;;1.48;;
30127;SDS011;16942;53.196;6.592;2023-08-08T14:45:34;7.00;;;1.13;;
30127;SDS011;16942;53.196;6.592;2023-08-08T14:48:02;4.78;;;1.25;;
30127;SDS011;16942;53.196;6.592;2023-08-08T14:50:28;6.57;;;1.10;;
30127;SDS011;16942;53.196;6.592;2023-08-08T14:52:54;1.98;;;1.17;;
30127;SDS011;16942;53.196;6.592;2023-08-08T14:55:20;6.30;;;1.30;;
30127;SDS011;16942;53.196;6.592;2023-08-08T14:57:46;3.42;;;1.42;;
30127;SDS011;16942;53.196;6.592;2023-08-08T15:00:12;7.88;;;1.10;;
30127;SDS011;16942;53.196;6.592;2023-08-08T15:02:39;4.30;;;1.00;;
30127;SDS011;16942;53.196;6.592;2023-08-08T15:05:05;3.47;;;0.90;;
30127;SDS011;16942;53.196;6.592;2023-08-08T15:07:31;7.40;;;1.98;;